Enter the Airport ICAO Code

Search by Airport or City

Current Weather

SKCG | Rafael Núñez International Airport

Cartagena, Colombia

Last Update 30 Minutes Ago

Partly Cloudy Sky

Temperature of 33 ºC

Light Winds from NorthEast

Temperature

33 ºC

Dew Point Temperature

27 ºC

Relative Humidity

70.97 %

Wind Direction

NorthEast (040º, Without Significant Variations)

Wind Velocity

6 km/h (03 kt)

Gusts

None

Visibility

Greater than 10 Kilometers

Sea Level Pressure

1008 hPa (Hectopascals)

Layers of Clouds

30% to 60% of Sky Covered from 610 mts (2000 ft) Above Ground Level.

METAR SKCG 031500Z 04003KT 9999 SCT020 33/27 Q1008 RMK A2979

Weather Forecast

SKCG | Rafael Núñez International Airport

Cartagena, Colombia

Forecast valid for the next 21 Hours

From now on it is expected:

Sky with Few Clouds

Light Winds from Variable Directions

In 3 hours it is expected the begining of 4 hours with intermittent periods of:

Rain

Maximum Temperature

No Data

Minimum Temperature

No Data

TAF SKCG 031030Z 0312/0412 VRB03KT 9999 FEW017 TEMPO 0318/0322 DZRA FEW015CB TX31/0319Z TN26/0409Z